Time;durP1;ratioP1;P1;durP2;ratioP2;P2;SDS_P1;SDS_P2;PMS_P1;PMS_P2;Temp;Humidity;BMP_temperature;BMP_pressure;BME280_temperature;BME280_humidity;BME280_pressure;Samples;Min_cycle;Max_cycle;Signal;HPM_P1;HPM_P2
2022/07/07 01:50:46;;;;;;;;;3.00;1.00;;;;;;;;4576844;28;8865;-75
2022/07/07 01:53:13;;;;;;;;;2.00;2.00;;;;;;;;4954560;28;8873;-74
2022/07/07 01:55:40;;;;;;;;;2.00;1.25;;;;;;;;4955401;28;8897;-75
2022/07/07 01:58:08;;;;;;;;;3.00;3.00;;;;;;;;4961839;28;8887;-74
2022/07/07 02:00:35;;;;;;;;;2.00;2.00;;;;;;;;4959521;28;8861;-74
2022/07/07 02:03:02;;;;;;;;;2.00;2.00;;;;;;;;4964242;28;8933;-74
2022/07/07 02:05:30;;;;;;;;;2.00;2.00;;;;;;;;4963111;28;8881;-74
2022/07/07 02:07:58;;;;;;;;;1.00;1.00;;;;;;;;4962901;28;8873;-74
2022/07/07 02:13:10;;;;;;;;;2.00;2.00;;;;;;;;4963552;28;8865;-75
2022/07/07 02:15:37;;;;;;;;;1.50;1.50;;;;;;;;4962173;28;8935;-74
2022/07/07 02:18:05;;;;;;;;;1.00;1.00;;;;;;;;4962035;28;9651;-75
2022/07/07 02:20:32;;;;;;;;;1.00;1.00;;;;;;;;4961301;28;8913;-75
2022/07/07 02:23:01;;;;;;;;;3.00;1.75;;;;;;;;4962146;28;8873;-75
2022/07/07 02:25:28;;;;;;;;;0.75;0.00;;;;;;;;4959636;28;9776;-74
2022/07/07 02:27:55;;;;;;;;;2.00;2.00;;;;;;;;4962358;28;8858;-75
2022/07/07 02:30:23;;;;;;;;;2.00;2.00;;;;;;;;4957918;28;10006;-75
2022/07/07 02:32:50;;;;;;;;;1.25;1.25;;;;;;;;4960593;28;8893;-75
2022/07/07 02:35:17;;;;;;;;;2.00;2.00;;;;;;;;4961363;28;9000;-76
2022/07/07 02:37:45;;;;;;;;;1.75;1.75;;;;;;;;4964634;28;10180;-75
2022/07/07 02:40:14;;;;;;;;;3.00;2.50;;;;;;;;4959734;28;8869;-74
2022/07/07 02:42:41;;;;;;;;;2.00;2.00;;;;;;;;4960211;28;8899;-75
2022/07/07 02:45:11;;;;;;;;;2.00;2.00;;;;;;;;4956360;28;8884;-74
2022/07/07 02:47:38;;;;;;;;;3.00;3.00;;;;;;;;4960919;28;8861;-75
2022/07/07 02:50:06;;;;;;;;;2.50;2.50;;;;;;;;4961389;28;8867;-76
2022/07/07 02:52:33;;;;;;;;;4.00;2.25;;;;;;;;4960984;28;9025;-76
2022/07/07 02:55:01;;;;;;;;;3.75;2.50;;;;;;;;4958158;28;8916;-76
2022/07/07 02:57:29;;;;;;;;;3.00;3.00;;;;;;;;4961824;28;8893;-74
2022/07/07 02:59:57;;;;;;;;;2.00;2.00;;;;;;;;4962506;28;8869;-74
2022/07/07 03:02:24;;;;;;;;;2.50;2.50;;;;;;;;4961845;28;8838;-72
2022/07/07 03:04:51;;;;;;;;;4.00;4.00;;;;;;;;4959685;28;8891;-74
2022/07/07 03:07:19;;;;;;;;;3.00;3.00;;;;;;;;4961146;28;8976;-76
2022/07/07 03:09:47;;;;;;;;;4.25;2.50;;;;;;;;4957802;28;8957;-74
2022/07/07 03:12:15;;;;;;;;;4.00;4.00;;;;;;;;4963940;28;8911;-75
2022/07/07 03:14:43;;;;;;;;;4.50;2.00;;;;;;;;4956077;28;8989;-76
2022/07/07 03:17:11;;;;;;;;;2.50;2.50;;;;;;;;4937347;28;8863;-76
2022/07/07 03:19:39;;;;;;;;;2.75;2.75;;;;;;;;4957042;28;8887;-77
2022/07/07 03:22:06;;;;;;;;;2.25;2.25;;;;;;;;4959049;28;8879;-76
2022/07/07 03:24:34;;;;;;;;;2.50;2.50;;;;;;;;4960029;28;8859;-76
2022/07/07 03:27:01;;;;;;;;;2.75;2.75;;;;;;;;4962254;28;8852;-75
2022/07/07 03:29:28;;;;;;;;;2.25;2.25;;;;;;;;4959292;28;8874;-76
2022/07/07 03:31:58;;;;;;;;;1.00;1.00;;;;;;;;4959155;28;8978;-76
2022/07/07 03:34:25;;;;;;;;;4.00;2.00;;;;;;;;4959790;28;8897;-76
2022/07/07 03:36:53;;;;;;;;;3.00;3.00;;;;;;;;4958896;28;8897;-74
2022/07/07 03:39:20;;;;;;;;;2.50;2.00;;;;;;;;4958618;28;8881;-74
2022/07/07 03:41:47;;;;;;;;;2.00;2.00;;;;;;;;4963120;28;8901;-73
2022/07/07 03:44:14;;;;;;;;;2.75;2.75;;;;;;;;4962051;28;8961;-75
2022/07/07 03:46:42;;;;;;;;;3.00;3.00;;;;;;;;4960322;28;8879;-77
2022/07/07 03:49:13;;;;;;;;;3.00;2.00;;;;;;;;4963617;28;8863;-76
2022/07/07 03:51:41;;;;;;;;;1.00;1.00;;;;;;;;4960008;28;8879;-75
2022/07/07 03:54:12;;;;;;;;;3.50;3.50;;;;;;;;4960616;28;8958;-76
2022/07/07 03:56:40;;;;;;;;;2.00;2.00;;;;;;;;4959224;28;8871;-78
2022/07/07 03:59:08;;;;;;;;;2.25;2.25;;;;;;;;4956607;28;8894;-75
2022/07/07 04:01:36;;;;;;;;;3.00;3.00;;;;;;;;4961342;28;8846;-76
2022/07/07 04:04:04;;;;;;;;;2.25;2.25;;;;;;;;4960796;28;8890;-75
2022/07/07 04:06:34;;;;;;;;;3.00;3.00;;;;;;;;4957374;28;8885;-75
2022/07/07 04:09:03;;;;;;;;;2.00;2.00;;;;;;;;4958872;28;8875;-76
2022/07/07 04:11:30;;;;;;;;;3.00;3.00;;;;;;;;4963725;28;8875;-74
2022/07/07 04:13:58;;;;;;;;;2.00;2.00;;;;;;;;4964613;28;8909;-75
2022/07/07 04:16:28;;;;;;;;;3.00;3.00;;;;;;;;4960552;28;9011;-75
2022/07/07 04:18:56;;;;;;;;;3.00;3.00;;;;;;;;4963544;28;8919;-76
2022/07/07 04:21:26;;;;;;;;;2.00;2.00;;;;;;;;4963519;28;8883;-76
2022/07/07 04:23:57;;;;;;;;;5.75;4.00;;;;;;;;4959737;28;9688;-76
2022/07/07 04:26:26;;;;;;;;;3.50;3.50;;;;;;;;4964380;28;9634;-76
2022/07/07 04:28:54;;;;;;;;;3.50;3.50;;;;;;;;4966567;28;8875;-75
2022/07/07 04:31:26;;;;;;;;;3.00;3.00;;;;;;;;4960034;28;8874;-77
2022/07/07 04:34:00;;;;;;;;;2.25;2.25;;;;;;;;4964055;28;9649;-75
2022/07/07 04:36:28;;;;;;;;;2.50;2.50;;;;;;;;4960329;28;8878;-75
2022/07/07 04:38:57;;;;;;;;;2.75;2.75;;;;;;;;4960295;28;8929;-75
2022/07/07 04:41:25;;;;;;;;;2.00;2.00;;;;;;;;4963175;28;8871;-73
2022/07/07 04:43:53;;;;;;;;;3.25;3.25;;;;;;;;4960819;28;8906;-74
2022/07/07 04:46:20;;;;;;;;;2.75;2.75;;;;;;;;4963548;28;8867;-74
2022/07/07 04:48:47;;;;;;;;;2.50;2.50;;;;;;;;4963633;28;8881;-75
2022/07/07 04:51:15;;;;;;;;;3.00;3.00;;;;;;;;4964606;28;8923;-75
2022/07/07 04:53:43;;;;;;;;;2.00;2.00;;;;;;;;4963851;28;8942;-74
2022/07/07 04:56:12;;;;;;;;;2.00;2.00;;;;;;;;4962779;28;8909;-73
2022/07/07 04:58:41;;;;;;;;;4.75;3.75;;;;;;;;4961925;28;8894;-74
2022/07/07 05:01:09;;;;;;;;;3.00;3.00;;;;;;;;4960531;28;8823;-74
2022/07/07 05:03:37;;;;;;;;;3.00;3.00;;;;;;;;4960874;28;8906;-75
2022/07/07 05:06:08;;;;;;;;;2.00;2.00;;;;;;;;4960129;28;8859;-75
2022/07/07 05:08:36;;;;;;;;;4.25;2.75;;;;;;;;4965198;28;8887;-75
2022/07/07 05:11:07;;;;;;;;;4.50;3.00;;;;;;;;4948142;28;8889;-74
2022/07/07 05:13:37;;;;;;;;;3.00;3.00;;;;;;;;4945081;28;8915;-77
2022/07/07 05:16:07;;;;;;;;;4.00;3.00;;;;;;;;4964019;28;8895;-75
2022/07/07 05:18:41;;;;;;;;;3.00;3.00;;;;;;;;4961787;28;8931;-75
2022/07/07 05:21:16;;;;;;;;;3.00;3.00;;;;;;;;4962027;28;8881;-76
2022/07/07 05:23:44;;;;;;;;;3.75;3.00;;;;;;;;4963423;28;8878;-74
2022/07/07 05:26:18;;;;;;;;;5.25;2.50;;;;;;;;4959720;28;8893;-75
2022/07/07 05:28:47;;;;;;;;;3.00;3.00;;;;;;;;4942333;28;8870;-77
2022/07/07 05:31:16;;;;;;;;;3.00;3.00;;;;;;;;4962556;28;9670;-74
2022/07/07 05:33:43;;;;;;;;;3.00;3.00;;;;;;;;4967170;28;8863;-73
2022/07/07 05:36:11;;;;;;;;;3.00;3.00;;;;;;;;4961356;28;8902;-75
2022/07/07 05:38:38;;;;;;;;;3.25;3.00;;;;;;;;4965126;28;8904;-74
2022/07/07 05:41:06;;;;;;;;;3.00;3.00;;;;;;;;4960947;28;8868;-74
2022/07/07 05:43:33;;;;;;;;;2.00;2.00;;;;;;;;4966899;28;8884;-75
2022/07/07 05:46:05;;;;;;;;;3.00;3.00;;;;;;;;4963469;28;8866;-75
2022/07/07 05:48:36;;;;;;;;;3.00;3.00;;;;;;;;4961956;28;9657;-74
2022/07/07 05:51:03;;;;;;;;;3.00;3.00;;;;;;;;4963318;28;8907;-75
2022/07/07 05:53:32;;;;;;;;;3.00;3.00;;;;;;;;4963387;28;8861;-74
2022/07/07 05:56:00;;;;;;;;;2.33;2.00;;;;;;;;4964209;28;8959;-77
2022/07/07 05:58:28;;;;;;;;;3.00;2.00;;;;;;;;4965623;28;8837;-76
2022/07/07 06:00:57;;;;;;;;;3.50;1.75;;;;;;;;4961693;28;8946;-76
2022/07/07 06:03:27;;;;;;;;;3.00;3.00;;;;;;;;4959961;28;8883;-78
2022/07/07 06:05:56;;;;;;;;;2.00;2.00;;;;;;;;4962741;28;8887;-82
2022/07/07 06:08:23;;;;;;;;;1.00;1.00;;;;;;;;4964913;28;8884;-89
2022/07/07 06:10:50;;;;;;;;;3.50;3.50;;;;;;;;4964176;28;8879;-81
2022/07/07 06:13:18;;;;;;;;;2.00;2.00;;;;;;;;4960814;28;9798;-81
2022/07/07 06:15:45;;;;;;;;;3.75;2.25;;;;;;;;4962122;28;8903;-81
2022/07/07 06:18:13;;;;;;;;;2.00;2.00;;;;;;;;4963223;28;8893;-81
2022/07/07 06:20:42;;;;;;;;;3.00;1.75;;;;;;;;4958344;28;9021;-78
2022/07/07 06:23:09;;;;;;;;;3.50;3.00;;;;;;;;4940405;28;8859;-83
2022/07/07 06:25:37;;;;;;;;;1.00;1.00;;;;;;;;4956638;28;9010;-83
2022/07/07 06:28:05;;;;;;;;;2.25;2.25;;;;;;;;4946375;28;8895;-81
2022/07/07 06:30:32;;;;;;;;;2.00;2.00;;;;;;;;4940578;28;9730;-75
2022/07/07 06:33:00;;;;;;;;;2.60;1.80;;;;;;;;4961712;28;8885;-77
2022/07/07 06:35:27;;;;;;;;;1.00;1.00;;;;;;;;4960523;28;8876;-76
2022/07/07 06:37:57;;;;;;;;;1.00;1.00;;;;;;;;4957377;28;9681;-77
2022/07/07 06:40:24;;;;;;;;;2.20;2.20;;;;;;;;4936239;28;9710;-77
2022/07/07 06:42:52;;;;;;;;;1.20;1.20;;;;;;;;4962176;28;8887;-77
2022/07/07 06:45:19;;;;;;;;;1.00;1.00;;;;;;;;4959541;28;8986;-75
2022/07/07 06:47:46;;;;;;;;;1.40;1.40;;;;;;;;4946016;28;8952;-75
2022/07/07 06:50:14;;;;;;;;;4.00;1.00;;;;;;;;4962705;28;9638;-75
2022/07/07 06:52:42;;;;;;;;;2.20;1.00;;;;;;;;4963192;28;8859;-79
2022/07/07 06:55:12;;;;;;;;;0.60;0.60;;;;;;;;4940661;28;8891;-74
2022/07/07 06:57:40;;;;;;;;;1.00;1.00;;;;;;;;4958019;28;8873;-75
2022/07/07 07:00:10;;;;;;;;;1.00;1.00;;;;;;;;4959333;28;8861;-80
2022/07/07 07:02:45;;;;;;;;;0.00;0.00;;;;;;;;4959457;28;9032;-76
2022/07/07 07:05:13;;;;;;;;;1.20;1.20;;;;;;;;4961069;28;8902;-72
2022/07/07 07:07:40;;;;;;;;;1.00;1.00;;;;;;;;4944946;28;8999;-74
2022/07/07 07:10:09;;;;;;;;;0.00;0.00;;;;;;;;4959874;28;8887;-73
2022/07/07 07:12:37;;;;;;;;;1.00;1.00;;;;;;;;4960147;28;8901;-73
2022/07/07 07:15:05;;;;;;;;;3.00;1.80;;;;;;;;4961990;28;8910;-74
2022/07/07 07:17:32;;;;;;;;;1.00;1.00;;;;;;;;4958356;28;8899;-74
2022/07/07 07:20:00;;;;;;;;;1.00;1.00;;;;;;;;4959178;28;8913;-73
2022/07/07 07:22:27;;;;;;;;;1.00;1.00;;;;;;;;4961303;28;8901;-73
2022/07/07 07:24:54;;;;;;;;;0.40;0.40;;;;;;;;4959927;28;8931;-74
2022/07/07 07:27:23;;;;;;;;;0.00;0.00;;;;;;;;4960294;28;8869;-75
2022/07/07 07:29:51;;;;;;;;;1.40;1.40;;;;;;;;4942615;28;8891;-74
2022/07/07 07:32:19;;;;;;;;;2.00;0.40;;;;;;;;4961128;28;8852;-76
2022/07/07 07:34:46;;;;;;;;;1.00;1.00;;;;;;;;4944804;28;8877;-76
2022/07/07 07:37:14;;;;;;;;;1.00;1.00;;;;;;;;4957896;28;8864;-76
2022/07/07 07:39:41;;;;;;;;;0.20;0.20;;;;;;;;4963965;28;8891;-74
2022/07/07 07:42:09;;;;;;;;;1.00;1.00;;;;;;;;4946128;28;8911;-76
2022/07/07 07:47:23;;;;;;;;;2.00;2.00;;;;;;;;4960953;28;9479;-73
2022/07/07 07:49:50;;;;;;;;;0.60;0.60;;;;;;;;4958739;28;8902;-75
2022/07/07 07:52:18;;;;;;;;;1.00;1.00;;;;;;;;4959584;28;9007;-75
2022/07/07 07:54:45;;;;;;;;;0.20;0.20;;;;;;;;4963128;28;8897;-75
2022/07/07 07:57:12;;;;;;;;;1.00;1.00;;;;;;;;4965538;28;8870;-74
2022/07/07 07:59:42;;;;;;;;;0.80;0.80;;;;;;;;4964174;28;8871;-73
2022/07/07 08:02:09;;;;;;;;;1.00;1.00;;;;;;;;4965297;28;8863;-74
2022/07/07 08:04:37;;;;;;;;;1.00;1.00;;;;;;;;4969589;28;8981;-73
2022/07/07 08:07:04;;;;;;;;;0.80;0.80;;;;;;;;4962301;28;8902;-75
2022/07/07 08:09:31;;;;;;;;;1.00;1.00;;;;;;;;4964205;28;8916;-73
2022/07/07 08:11:59;;;;;;;;;0.00;0.00;;;;;;;;4960349;28;8885;-78
2022/07/07 08:14:26;;;;;;;;;0.60;0.60;;;;;;;;4962698;28;8869;-74
2022/07/07 08:16:55;;;;;;;;;1.00;1.00;;;;;;;;4961221;28;8921;-73
2022/07/07 08:19:22;;;;;;;;;2.00;0.40;;;;;;;;4960330;28;9006;-74
2022/07/07 08:21:50;;;;;;;;;1.00;1.00;;;;;;;;4961294;28;8921;-75
2022/07/07 08:24:21;;;;;;;;;2.00;0.20;;;;;;;;4963065;28;9768;-75
2022/07/07 08:26:48;;;;;;;;;0.60;0.60;;;;;;;;4946800;28;8867;-73
2022/07/07 08:29:15;;;;;;;;;0.60;0.60;;;;;;;;4964573;28;8839;-73
2022/07/07 08:31:43;;;;;;;;;0.20;0.20;;;;;;;;4964089;28;8977;-73
2022/07/07 08:34:11;;;;;;;;;0.20;0.20;;;;;;;;4965303;28;8970;-78
2022/07/07 08:36:39;;;;;;;;;1.00;1.00;;;;;;;;4958640;28;8859;-74
2022/07/07 08:39:06;;;;;;;;;1.00;1.00;;;;;;;;4966850;28;8865;-75
2022/07/07 08:41:34;;;;;;;;;0.60;0.60;;;;;;;;4961944;28;8871;-73
2022/07/07 08:44:02;;;;;;;;;0.20;0.20;;;;;;;;4965643;28;8869;-74
2022/07/07 08:46:30;;;;;;;;;0.00;0.00;;;;;;;;4957077;28;8863;-75
2022/07/07 08:48:58;;;;;;;;;0.00;0.00;;;;;;;;4960420;28;8892;-74
2022/07/07 08:51:27;;;;;;;;;0.20;0.20;;;;;;;;4963150;28;8863;-74
2022/07/07 08:53:54;;;;;;;;;1.00;1.00;;;;;;;;4962237;28;8899;-74
2022/07/07 08:56:22;;;;;;;;;0.00;0.00;;;;;;;;4958032;28;8883;-75
2022/07/07 08:58:49;;;;;;;;;0.00;0.00;;;;;;;;4964933;28;8926;-74
2022/07/07 09:01:17;;;;;;;;;1.00;1.00;;;;;;;;4958841;28;8818;-77
2022/07/07 09:03:44;;;;;;;;;1.00;1.00;;;;;;;;4967417;28;8876;-74
2022/07/07 09:06:11;;;;;;;;;0.00;0.00;;;;;;;;4960681;28;8855;-75
2022/07/07 09:08:40;;;;;;;;;0.00;0.00;;;;;;;;4961823;28;8890;-75
2022/07/07 09:11:09;;;;;;;;;1.00;1.00;;;;;;;;4959385;28;8912;-76
2022/07/07 09:13:37;;;;;;;;;0.80;0.80;;;;;;;;4965909;28;9667;-75
2022/07/07 09:16:14;;;;;;;;;1.00;1.00;;;;;;;;4963460;28;8889;-71
2022/07/07 09:18:44;;;;;;;;;1.20;1.20;;;;;;;;4947130;28;8908;-75
2022/07/07 09:21:26;;;;;;;;;2.00;2.00;;;;;;;;4962162;28;8897;-75
2022/07/07 09:23:56;;;;;;;;;1.20;1.00;;;;;;;;4962120;28;8901;-76
2022/07/07 09:26:37;;;;;;;;;1.20;1.20;;;;;;;;4967142;28;9541;-72
2022/07/07 09:29:06;;;;;;;;;0.00;0.00;;;;;;;;4965206;28;8919;-74
2022/07/07 09:31:57;;;;;;;;;2.00;1.00;;;;;;;;4961139;28;8844;-75
2022/07/07 09:34:27;;;;;;;;;1.00;1.00;;;;;;;;4963902;28;9020;-73
2022/07/07 09:39:45;;;;;;;;;1.00;1.00;;;;;;;;4964285;28;9704;-73
2022/07/07 09:42:20;;;;;;;;;0.60;0.60;;;;;;;;4962166;28;9628;-75
2022/07/07 09:44:49;;;;;;;;;1.20;1.20;;;;;;;;4963265;28;8923;-73
2022/07/07 09:47:16;;;;;;;;;1.00;0.40;;;;;;;;4958854;28;8888;-71
2022/07/07 09:49:44;;;;;;;;;2.40;1.60;;;;;;;;4959310;28;8919;-71
2022/07/07 09:52:19;;;;;;;;;1.80;0.00;;;;;;;;4961755;28;8864;-74
2022/07/07 09:54:51;;;;;;;;;1.00;1.00;;;;;;;;4944080;28;8903;-71
2022/07/07 09:57:19;;;;;;;;;1.00;1.00;;;;;;;;4962860;28;8879;-74
2022/07/07 09:59:47;;;;;;;;;0.00;0.00;;;;;;;;4963883;28;9637;-69
2022/07/07 10:02:20;;;;;;;;;1.00;1.00;;;;;;;;4963000;28;8843;-73
2022/07/07 10:04:53;;;;;;;;;1.20;1.20;;;;;;;;4961704;28;8865;-71
2022/07/07 10:07:22;;;;;;;;;1.00;1.00;;;;;;;;4966625;28;8898;-69
2022/07/07 10:09:54;;;;;;;;;0.00;0.00;;;;;;;;4964694;28;8959;-70
2022/07/07 10:12:23;;;;;;;;;1.00;1.00;;;;;;;;4960832;28;8863;-72
2022/07/07 10:14:54;;;;;;;;;1.40;1.40;;;;;;;;4958271;28;8886;-73
2022/07/07 10:17:22;;;;;;;;;5.20;5.20;;;;;;;;4957759;28;9639;-71
2022/07/07 10:19:49;;;;;;;;;2.00;2.00;;;;;;;;4964178;28;8909;-70
2022/07/07 10:22:16;;;;;;;;;2.00;2.00;;;;;;;;4959623;28;8855;-73
2022/07/07 10:24:44;;;;;;;;;1.00;1.00;;;;;;;;4957497;28;8855;-72
2022/07/07 10:27:16;;;;;;;;;0.60;0.60;;;;;;;;4958738;28;9681;-77
2022/07/07 10:29:44;;;;;;;;;1.00;1.00;;;;;;;;4954882;28;8859;-72
2022/07/07 10:32:13;;;;;;;;;1.20;1.20;;;;;;;;4955389;28;8872;-75
2022/07/07 10:34:48;;;;;;;;;2.20;1.00;;;;;;;;4956482;28;8880;-75
2022/07/07 10:37:16;;;;;;;;;2.00;2.00;;;;;;;;4955142;28;8899;-75
2022/07/07 10:39:53;;;;;;;;;2.00;2.00;;;;;;;;4954382;28;8852;-73
2022/07/07 10:42:54;;;;;;;;;1.80;1.80;;;;;;;;4966225;28;8879;-76
2022/07/07 10:45:23;;;;;;;;;3.60;1.40;;;;;;;;4948761;28;8913;-74
2022/07/07 10:47:50;;;;;;;;;2.00;2.00;;;;;;;;4955474;28;9763;-76
2022/07/07 10:50:32;;;;;;;;;2.00;2.00;;;;;;;;4959851;28;8919;-74
2022/07/07 10:53:00;;;;;;;;;3.20;2.00;;;;;;;;4958969;28;8909;-75
2022/07/07 10:55:58;;;;;;;;;2.00;2.00;;;;;;;;4955850;28;8875;-72
2022/07/07 10:58:56;;;;;;;;;2.00;2.00;;;;;;;;4961872;28;8875;-73
2022/07/07 11:01:25;;;;;;;;;1.80;1.80;;;;;;;;4956175;28;8818;-75
2022/07/07 11:03:52;;;;;;;;;2.00;2.00;;;;;;;;4948710;28;8857;-72
2022/07/07 11:06:20;;;;;;;;;1.00;1.00;;;;;;;;4958274;28;9730;-70
2022/07/07 11:08:59;;;;;;;;;1.00;1.00;;;;;;;;4952112;28;8877;-71
2022/07/07 11:11:27;;;;;;;;;1.00;1.00;;;;;;;;4960617;28;8902;-70
2022/07/07 11:14:08;;;;;;;;;1.80;1.80;;;;;;;;4954705;28;8889;-74
2022/07/07 11:16:36;;;;;;;;;1.00;1.00;;;;;;;;4952259;28;8994;-71
2022/07/07 11:19:04;;;;;;;;;0.60;0.00;;;;;;;;4951564;28;8877;-77
2022/07/07 11:21:40;;;;;;;;;1.00;1.00;;;;;;;;4955400;28;8948;-75
2022/07/07 11:24:16;;;;;;;;;0.40;0.40;;;;;;;;4954975;28;8920;-76
2022/07/07 11:26:44;;;;;;;;;0.40;0.40;;;;;;;;4953874;28;8871;-75
2022/07/07 11:29:13;;;;;;;;;1.00;1.00;;;;;;;;4959571;28;8857;-79
2022/07/07 11:31:40;;;;;;;;;0.00;0.00;;;;;;;;4958991;28;8840;-79
2022/07/07 11:34:07;;;;;;;;;0.00;0.00;;;;;;;;4963456;28;8863;-77
2022/07/07 11:36:35;;;;;;;;;0.00;0.00;;;;;;;;4963544;28;8889;-71
2022/07/07 11:39:06;;;;;;;;;0.00;0.00;;;;;;;;4960993;28;8953;-76
2022/07/07 11:41:40;;;;;;;;;0.00;0.00;;;;;;;;4960303;28;8921;-78
2022/07/07 11:44:08;;;;;;;;;0.00;0.00;;;;;;;;4961775;28;8852;-77
2022/07/07 11:46:37;;;;;;;;;0.60;0.40;;;;;;;;4966283;28;8877;-76
2022/07/07 11:49:05;;;;;;;;;0.00;0.00;;;;;;;;4940850;28;8908;-74
2022/07/07 11:51:32;;;;;;;;;0.20;0.20;;;;;;;;4963513;28;9664;-73
2022/07/07 11:54:00;;;;;;;;;0.00;0.00;;;;;;;;4965607;28;8918;-75
2022/07/07 11:56:32;;;;;;;;;0.00;0.00;;;;;;;;4959003;28;8901;-77
2022/07/07 11:59:00;;;;;;;;;0.80;0.80;;;;;;;;4961854;28;8859;-80
2022/07/07 12:01:32;;;;;;;;;0.00;0.00;;;;;;;;4958792;28;8819;-76
2022/07/07 12:04:02;;;;;;;;;0.20;0.20;;;;;;;;4962197;28;9637;-75
2022/07/07 12:06:29;;;;;;;;;1.00;1.00;;;;;;;;4955333;28;8897;-73
2022/07/07 12:08:58;;;;;;;;;0.00;0.00;;;;;;;;4940522;28;8855;-75
2022/07/07 12:11:25;;;;;;;;;0.00;0.00;;;;;;;;4963368;28;10036;-72
2022/07/07 12:13:53;;;;;;;;;0.00;0.00;;;;;;;;4959463;28;8887;-74
2022/07/07 12:16:21;;;;;;;;;1.00;1.00;;;;;;;;4962879;28;8850;-74
2022/07/07 12:18:48;;;;;;;;;0.00;0.00;;;;;;;;4957816;28;8881;-78
2022/07/07 12:21:23;;;;;;;;;0.00;0.00;;;;;;;;4928580;28;9497;-76
2022/07/07 12:23:53;;;;;;;;;1.00;1.00;;;;;;;;4964476;28;8938;-74
2022/07/07 12:26:25;;;;;;;;;1.00;1.00;;;;;;;;4966500;28;8893;-73
2022/07/07 12:28:59;;;;;;;;;0.00;0.00;;;;;;;;4964032;28;8883;-72
2022/07/07 12:31:26;;;;;;;;;0.00;0.00;;;;;;;;4962246;28;8866;-76
2022/07/07 12:33:53;;;;;;;;;1.00;1.00;;;;;;;;4960855;28;10187;-74
2022/07/07 12:36:25;;;;;;;;;0.00;0.00;;;;;;;;4962810;28;9654;-76
2022/07/07 12:38:55;;;;;;;;;0.00;0.00;;;;;;;;4963690;28;9657;-75
2022/07/07 12:41:26;;;;;;;;;0.00;0.00;;;;;;;;4963288;28;8892;-77
2022/07/07 12:43:55;;;;;;;;;0.00;0.00;;;;;;;;4966708;28;9644;-74
2022/07/07 12:46:32;;;;;;;;;2.00;0.00;;;;;;;;4958551;28;8897;-77
2022/07/07 12:49:01;;;;;;;;;0.20;0.20;;;;;;;;4957443;28;8875;-73
2022/07/07 12:51:29;;;;;;;;;0.00;0.00;;;;;;;;4964153;28;8871;-74
2022/07/07 12:53:58;;;;;;;;;0.00;0.00;;;;;;;;4958280;28;9651;-77
2022/07/07 12:56:32;;;;;;;;;0.40;0.40;;;;;;;;4962076;28;8887;-77
2022/07/07 12:59:00;;;;;;;;;0.00;0.00;;;;;;;;4964776;28;8881;-76
2022/07/07 13:01:28;;;;;;;;;0.40;0.40;;;;;;;;4966063;28;8846;-76
2022/07/07 13:03:58;;;;;;;;;1.00;0.00;;;;;;;;4967903;28;8871;-77
2022/07/07 13:06:26;;;;;;;;;0.20;0.20;;;;;;;;4963972;28;9040;-76
2022/07/07 13:08:55;;;;;;;;;0.40;0.40;;;;;;;;4964656;28;8890;-77
2022/07/07 13:11:22;;;;;;;;;0.60;0.60;;;;;;;;4952625;28;8903;-76
2022/07/07 13:13:49;;;;;;;;;0.60;0.60;;;;;;;;4960277;28;8893;-75
2022/07/07 13:16:17;;;;;;;;;0.00;0.00;;;;;;;;4959318;28;8917;-76
2022/07/07 13:18:46;;;;;;;;;1.80;0.00;;;;;;;;4959464;28;9687;-81
2022/07/07 13:21:13;;;;;;;;;0.00;0.00;;;;;;;;4958482;28;9002;-75
2022/07/07 13:23:40;;;;;;;;;0.20;0.20;;;;;;;;4963182;28;9685;-76
2022/07/07 13:26:11;;;;;;;;;0.00;0.00;;;;;;;;4960670;28;8891;-76
2022/07/07 13:28:39;;;;;;;;;0.60;0.60;;;;;;;;4964913;28;8881;-77
2022/07/07 13:31:06;;;;;;;;;0.20;0.20;;;;;;;;4962063;28;8855;-76
2022/07/07 13:33:33;;;;;;;;;1.00;1.00;;;;;;;;4960509;28;8929;-78
2022/07/07 13:36:01;;;;;;;;;1.00;1.00;;;;;;;;4962799;28;9115;-75
2022/07/07 13:38:28;;;;;;;;;0.80;0.80;;;;;;;;4962554;28;8904;-73
2022/07/07 13:40:56;;;;;;;;;0.20;0.20;;;;;;;;4943999;28;8890;-75
2022/07/07 13:43:24;;;;;;;;;1.00;1.00;;;;;;;;4961598;28;8892;-74
2022/07/07 13:45:52;;;;;;;;;0.60;0.60;;;;;;;;4958080;28;8996;-76
2022/07/07 13:48:19;;;;;;;;;2.00;1.00;;;;;;;;4968090;28;8890;-76
2022/07/07 13:50:48;;;;;;;;;1.40;1.00;;;;;;;;4939167;28;8867;-77
2022/07/07 13:53:15;;;;;;;;;1.00;1.00;;;;;;;;4965960;28;8985;-75
2022/07/07 13:55:42;;;;;;;;;2.60;1.00;;;;;;;;4960808;28;8883;-74
2022/07/07 13:58:10;;;;;;;;;1.00;1.00;;;;;;;;4963072;28;9725;-74
2022/07/07 14:00:39;;;;;;;;;1.00;1.00;;;;;;;;4963502;28;8788;-74
2022/07/07 14:03:07;;;;;;;;;1.60;1.60;;;;;;;;4964449;28;8893;-73
2022/07/07 14:05:34;;;;;;;;;1.80;1.80;;;;;;;;4965625;28;8867;-73
2022/07/07 14:08:02;;;;;;;;;0.60;0.60;;;;;;;;4961120;28;8889;-73
2022/07/07 14:10:29;;;;;;;;;2.00;1.60;;;;;;;;4964246;28;8958;-74
2022/07/07 14:12:57;;;;;;;;;1.00;1.00;;;;;;;;4962829;28;8869;-74
2022/07/07 14:15:25;;;;;;;;;0.20;0.20;;;;;;;;4965173;28;9670;-73
2022/07/07 14:17:54;;;;;;;;;0.40;0.40;;;;;;;;4962667;28;8880;-74
2022/07/07 14:20:21;;;;;;;;;1.00;1.00;;;;;;;;4943502;28;8921;-75
2022/07/07 14:22:49;;;;;;;;;0.80;0.80;;;;;;;;4964291;28;8859;-75
2022/07/07 14:25:17;;;;;;;;;1.00;1.00;;;;;;;;4958745;28;8881;-74
2022/07/07 14:27:45;;;;;;;;;1.00;1.00;;;;;;;;4962924;28;8893;-73
2022/07/07 14:30:12;;;;;;;;;1.00;1.00;;;;;;;;4957561;28;8992;-73
2022/07/07 14:32:39;;;;;;;;;0.60;0.60;;;;;;;;4965306;28;8863;-72
2022/07/07 14:35:09;;;;;;;;;1.00;1.00;;;;;;;;4956765;28;8875;-74
2022/07/07 14:37:36;;;;;;;;;1.00;1.00;;;;;;;;4966349;28;9696;-73
2022/07/07 14:40:04;;;;;;;;;0.80;0.80;;;;;;;;4962266;28;8855;-74
2022/07/07 14:42:31;;;;;;;;;1.00;1.00;;;;;;;;4958508;28;8887;-74
2022/07/07 14:44:58;;;;;;;;;1.00;1.00;;;;;;;;4962579;28;8871;-74
2022/07/07 14:47:25;;;;;;;;;0.00;0.00;;;;;;;;4958722;28;8901;-75
2022/07/07 14:49:54;;;;;;;;;1.40;1.40;;;;;;;;4938122;28;8887;-74
2022/07/07 14:52:23;;;;;;;;;1.00;1.00;;;;;;;;4939831;28;8912;-73
2022/07/07 14:54:50;;;;;;;;;1.00;1.00;;;;;;;;4954091;28;8970;-73
2022/07/07 14:57:17;;;;;;;;;0.60;0.40;;;;;;;;4964755;28;9648;-74
2022/07/07 14:59:44;;;;;;;;;0.00;0.00;;;;;;;;4957555;28;9030;-75
2022/07/07 15:02:12;;;;;;;;;1.00;1.00;;;;;;;;4957943;28;8865;-74
2022/07/07 15:04:39;;;;;;;;;1.00;1.00;;;;;;;;4958995;28;8886;-74
2022/07/07 15:07:06;;;;;;;;;0.60;0.60;;;;;;;;4962034;28;8891;-73
2022/07/07 15:09:35;;;;;;;;;0.40;0.40;;;;;;;;4961625;28;8877;-72
2022/07/07 15:12:02;;;;;;;;;1.00;1.00;;;;;;;;4960560;28;8885;-74
2022/07/07 15:14:30;;;;;;;;;0.60;0.60;;;;;;;;4961748;28;8916;-74
2022/07/07 15:16:57;;;;;;;;;0.00;0.00;;;;;;;;4957338;28;9665;-75
2022/07/07 15:19:24;;;;;;;;;0.00;0.00;;;;;;;;4959338;28;8905;-74
2022/07/07 15:21:51;;;;;;;;;0.80;0.80;;;;;;;;4965742;28;8896;-74
2022/07/07 15:24:19;;;;;;;;;0.20;0.20;;;;;;;;4960854;28;8870;-73
2022/07/07 15:26:49;;;;;;;;;1.60;0.00;;;;;;;;4961905;28;8956;-75
2022/07/07 15:29:16;;;;;;;;;0.00;0.00;;;;;;;;4964427;28;8889;-74
2022/07/07 15:31:45;;;;;;;;;0.00;0.00;;;;;;;;4959907;28;8837;-75
2022/07/07 15:34:13;;;;;;;;;0.00;0.00;;;;;;;;4958854;28;8881;-73
2022/07/07 15:36:40;;;;;;;;;0.40;0.40;;;;;;;;4960901;28;8893;-75
2022/07/07 15:39:07;;;;;;;;;0.20;0.20;;;;;;;;4964223;28;9019;-74
2022/07/07 15:41:35;;;;;;;;;0.80;0.80;;;;;;;;4961528;28;8871;-74
2022/07/07 15:44:04;;;;;;;;;2.00;0.00;;;;;;;;4963344;28;8867;-75
2022/07/07 15:46:32;;;;;;;;;0.00;0.00;;;;;;;;4958708;28;8998;-73
2022/07/07 15:48:59;;;;;;;;;0.40;0.40;;;;;;;;4961167;28;9717;-72
2022/07/07 15:51:26;;;;;;;;;0.00;0.00;;;;;;;;4961762;28;8997;-71
2022/07/07 15:53:54;;;;;;;;;0.40;0.40;;;;;;;;4965984;28;8886;-75
2022/07/07 15:56:21;;;;;;;;;1.00;1.00;;;;;;;;4957043;28;8898;-75
2022/07/07 15:58:49;;;;;;;;;0.60;0.60;;;;;;;;4966221;28;8998;-74
2022/07/07 16:01:18;;;;;;;;;0.80;0.80;;;;;;;;4959526;28;9614;-73
2022/07/07 16:06:32;;;;;;;;;0.80;0.80;;;;;;;;4954493;28;8843;-73
2022/07/07 16:09:00;;;;;;;;;1.00;1.00;;;;;;;;4944243;28;8902;-76
2022/07/07 16:11:28;;;;;;;;;1.20;1.00;;;;;;;;4940393;28;8951;-76
2022/07/07 16:13:56;;;;;;;;;1.00;1.00;;;;;;;;4958516;28;8886;-75
2022/07/07 16:16:25;;;;;;;;;1.00;1.00;;;;;;;;4958218;28;8864;-77
2022/07/07 16:18:53;;;;;;;;;2.80;2.00;;;;;;;;4958929;28;8865;-77
2022/07/07 16:21:21;;;;;;;;;3.20;3.20;;;;;;;;4966686;28;8955;-79
2022/07/07 16:23:50;;;;;;;;;2.00;2.00;;;;;;;;4961948;28;8859;-75
2022/07/07 16:26:17;;;;;;;;;3.20;2.60;;;;;;;;4959904;28;8993;-75
2022/07/07 16:28:44;;;;;;;;;1.20;1.20;;;;;;;;4963409;28;8883;-77
2022/07/07 16:31:11;;;;;;;;;2.40;2.40;;;;;;;;4963463;28;8832;-74
2022/07/07 16:33:41;;;;;;;;;2.00;2.00;;;;;;;;4968006;28;8883;-74
2022/07/07 16:36:09;;;;;;;;;2.40;2.40;;;;;;;;4956477;28;8871;-75
2022/07/07 16:38:37;;;;;;;;;3.80;2.40;;;;;;;;4964624;28;10032;-75
2022/07/07 16:41:05;;;;;;;;;2.00;2.00;;;;;;;;4962172;28;8900;-72
2022/07/07 16:43:33;;;;;;;;;2.00;2.00;;;;;;;;4962812;28;8898;-78
2022/07/07 16:46:01;;;;;;;;;2.00;2.00;;;;;;;;4970440;28;8883;-79
2022/07/07 16:48:28;;;;;;;;;2.40;1.00;;;;;;;;4963764;28;8893;-77
2022/07/07 16:50:57;;;;;;;;;2.80;2.80;;;;;;;;4959246;28;8864;-80
2022/07/07 16:53:25;;;;;;;;;2.60;2.00;;;;;;;;4963171;28;8929;-75
2022/07/07 16:55:52;;;;;;;;;1.80;1.80;;;;;;;;4963413;28;8893;-76
2022/07/07 16:58:19;;;;;;;;;2.00;2.00;;;;;;;;4961666;28;8893;-77
2022/07/07 17:00:47;;;;;;;;;1.00;1.00;;;;;;;;4960761;28;8858;-78
2022/07/07 17:03:15;;;;;;;;;2.00;2.00;;;;;;;;4961604;28;8885;-78
2022/07/07 17:05:43;;;;;;;;;1.00;1.00;;;;;;;;4954244;28;8871;-77